createdAt,value
2022-10-14T00:02:59.620Z,12.40
2022-10-14T00:13:01.886Z,12.27
2022-10-14T00:23:04.617Z,12.15
2022-10-14T00:33:07.033Z,12.13
2022-10-14T00:43:14.480Z,12.16
2022-10-14T00:53:18.074Z,12.17
2022-10-14T01:03:23.067Z,12.18
2022-10-14T01:13:50.585Z,12.20
2022-10-14T01:24:19.557Z,12.20
2022-10-14T01:34:30.964Z,12.22
2022-10-14T01:44:35.732Z,12.22
2022-10-14T01:54:41.516Z,12.25
2022-10-14T02:04:43.722Z,12.27
2022-10-14T02:14:48.727Z,12.29
2022-10-14T02:24:58.837Z,12.31
2022-10-14T02:35:02.991Z,12.31
2022-10-14T02:45:07.243Z,12.29
2022-10-14T02:55:09.564Z,12.30
2022-10-14T03:05:12.221Z,12.31
2022-10-14T03:15:14.663Z,12.34
2022-10-14T03:25:16.937Z,12.36
2022-10-14T03:35:19.461Z,12.37
2022-10-14T03:45:22.000Z,12.38
2022-10-14T03:55:24.544Z,12.39
2022-10-14T04:05:26.789Z,12.39
2022-10-14T04:15:29.126Z,12.39
2022-10-14T04:25:31.449Z,12.37
2022-10-14T04:35:33.840Z,12.32
2022-10-14T04:45:36.075Z,12.22
2022-10-14T04:55:38.312Z,12.11
2022-10-14T05:05:40.617Z,11.95
2022-10-14T05:15:43.056Z,11.99
2022-10-14T05:25:45.575Z,12.00
2022-10-14T05:35:58.650Z,12.01
2022-10-14T05:46:02.583Z,12.02
2022-10-14T05:56:09.762Z,12.03
2022-10-14T06:06:17.007Z,12.07
2022-10-14T06:16:19.413Z,12.12
2022-10-14T06:26:21.819Z,12.19
2022-10-14T06:36:24.374Z,12.25
2022-10-14T06:46:26.989Z,12.37
2022-10-14T06:56:29.483Z,12.49
2022-10-14T07:06:32.462Z,12.65
2022-10-14T07:16:34.913Z,12.78
2022-10-14T07:26:37.261Z,12.96
2022-10-14T07:36:39.897Z,13.21
2022-10-14T07:46:45.189Z,13.38
2022-10-14T07:56:51.762Z,13.55
2022-10-14T08:06:54.302Z,13.86
2022-10-14T08:16:57.034Z,14.10
2022-10-14T08:27:01.473Z,14.35
2022-10-14T08:37:04.221Z,14.66
2022-10-14T08:47:14.560Z,14.81
2022-10-14T08:57:23.518Z,15.05
2022-10-14T09:07:28.566Z,15.37
2022-10-14T09:17:43.844Z,15.30
2022-10-14T09:37:54.747Z,15.53
2022-10-14T09:48:09.991Z,15.78
2022-10-14T09:58:18.941Z,15.87
2022-10-14T10:08:21.833Z,16.14
2022-10-14T10:18:25.507Z,16.33
2022-10-14T10:28:34.067Z,16.30
2022-10-14T10:38:52.523Z,16.62
2022-10-14T10:49:24.847Z,16.94
2022-10-14T10:59:30.875Z,17.17
2022-10-14T11:10:11.720Z,17.33
2022-10-14T11:20:38.286Z,17.45
2022-10-14T11:31:18.286Z,17.42
2022-10-14T11:42:03.589Z,17.16
2022-10-14T11:52:17.741Z,17.00
2022-10-14T12:02:51.325Z,16.92
2022-10-14T12:12:56.383Z,16.99
2022-10-14T12:23:00.999Z,16.98
2022-10-14T12:33:12.917Z,16.97
2022-10-14T12:43:30.011Z,17.06
2022-10-14T12:53:34.293Z,17.03
2022-10-14T13:03:53.584Z,16.96
2022-10-14T13:14:01.440Z,16.93
2022-10-14T13:24:23.221Z,16.83
2022-10-14T13:34:44.661Z,16.65
2022-10-14T13:44:49.494Z,16.39
2022-10-14T13:55:14.492Z,16.25
2022-10-14T14:05:19.870Z,16.14
2022-10-14T14:15:29.527Z,15.97
2022-10-14T14:25:34.418Z,15.80
2022-10-14T14:35:38.643Z,15.69
2022-10-14T14:45:46.939Z,15.59
2022-10-14T14:55:55.181Z,15.52
2022-10-14T15:06:00.804Z,15.44
2022-10-14T15:16:07.817Z,15.33
2022-10-14T15:26:33.827Z,15.23
2022-10-14T15:36:36.663Z,15.12
2022-10-14T15:46:59.275Z,15.06
2022-10-14T15:57:02.018Z,15.02
2022-10-14T16:07:04.622Z,14.95
2022-10-14T16:17:09.174Z,14.88
2022-10-14T16:27:12.107Z,14.81
2022-10-14T16:37:15.011Z,14.74
2022-10-14T16:47:18.089Z,14.68
2022-10-14T16:57:21.503Z,14.63
2022-10-14T17:07:24.131Z,14.59
2022-10-14T17:17:27.569Z,14.55
2022-10-14T17:27:30.163Z,14.50
2022-10-14T17:37:32.826Z,14.45
2022-10-14T17:47:35.465Z,14.41
2022-10-14T17:57:38.155Z,14.37
2022-10-14T18:07:41.275Z,14.33
2022-10-14T18:17:44.009Z,14.30
2022-10-14T18:27:47.293Z,14.26
2022-10-14T18:37:49.812Z,14.23
2022-10-14T18:47:53.312Z,14.20
2022-10-14T18:57:56.431Z,14.15
2022-10-14T19:08:00.652Z,14.12
2022-10-14T19:18:03.270Z,14.08
2022-10-14T19:28:05.788Z,14.03
2022-10-14T19:38:08.428Z,13.97
2022-10-14T19:48:11.197Z,13.93
2022-10-14T19:58:13.991Z,13.92
2022-10-14T20:08:17.181Z,13.92
2022-10-14T20:18:19.788Z,13.92
2022-10-14T20:28:22.518Z,13.95
2022-10-14T20:38:25.139Z,14.03
2022-10-14T20:48:28.069Z,14.01
2022-10-14T20:58:31.070Z,14.03
2022-10-14T21:08:33.846Z,14.03
2022-10-14T21:18:36.851Z,14.04
2022-10-14T21:28:39.482Z,14.07
2022-10-14T21:38:42.667Z,14.09
2022-10-14T21:48:45.795Z,14.12
2022-10-14T21:58:48.356Z,14.16
2022-10-14T22:08:52.737Z,14.21
2022-10-14T22:18:56.161Z,14.30
2022-10-14T22:29:06.171Z,14.33
2022-10-14T22:39:13.439Z,14.39
2022-10-14T22:49:16.444Z,14.44
2022-10-14T22:59:19.128Z,14.48
2022-10-14T23:09:21.541Z,14.52
2022-10-14T23:19:23.904Z,14.59
2022-10-14T23:29:26.252Z,14.58
2022-10-14T23:39:28.693Z,14.61
2022-10-14T23:49:31.127Z,14.65
2022-10-14T23:59:33.453Z,14.68
